createdAt,value
2019-03-19T00:00:06.049Z,8.00
2019-03-19T00:01:06.043Z,8.00
2019-03-19T00:02:06.061Z,8.00
2019-03-19T00:03:06.025Z,8.00
2019-03-19T00:04:06.002Z,8.00
2019-03-19T00:05:05.991Z,8.00
2019-03-19T00:06:05.976Z,8.00
2019-03-19T00:07:05.967Z,8.00
2019-03-19T00:08:06.007Z,8.00
2019-03-19T00:09:05.946Z,8.00
2019-03-19T00:10:05.940Z,8.00
2019-03-19T00:11:05.925Z,8.00
2019-03-19T00:12:05.919Z,8.00
2019-03-19T00:13:05.903Z,8.00
2019-03-19T00:14:05.904Z,8.00
2019-03-19T00:15:05.900Z,8.00
2019-03-19T00:16:05.872Z,8.00
2019-03-19T00:17:05.866Z,8.00
2019-03-19T00:18:05.854Z,8.00
2019-03-19T00:19:05.855Z,8.00
2019-03-19T00:20:05.876Z,8.00
2019-03-19T00:21:05.822Z,8.00
2019-03-19T00:22:15.660Z,8.00
2019-03-19T00:23:05.803Z,8.00
2019-03-19T00:24:05.791Z,8.00
2019-03-19T00:25:05.818Z,8.00
2019-03-19T00:26:05.771Z,8.00
2019-03-19T00:27:05.759Z,8.00
2019-03-19T00:28:05.741Z,8.00
2019-03-19T00:29:05.738Z,8.00
2019-03-19T00:30:05.733Z,8.00
2019-03-19T00:31:05.719Z,8.00
2019-03-19T00:32:05.697Z,8.00
2019-03-19T00:33:05.737Z,8.00
2019-03-19T00:34:05.679Z,8.00
2019-03-19T00:35:05.677Z,8.00
2019-03-19T00:36:05.668Z,8.00
2019-03-19T00:37:05.683Z,8.00
2019-03-19T00:38:05.636Z,8.00
2019-03-19T00:39:05.629Z,8.00
2019-03-19T00:40:05.613Z,8.00
2019-03-19T00:41:05.621Z,8.00
2019-03-19T00:42:05.599Z,8.00
2019-03-19T00:43:05.622Z,8.00
2019-03-19T00:44:05.576Z,8.00
2019-03-19T00:45:05.565Z,8.00
2019-03-19T00:46:05.677Z,8.00
2019-03-19T00:47:05.543Z,8.00
2019-03-19T00:48:05.538Z,8.00
2019-03-19T00:49:06.783Z,8.00
2019-03-19T00:50:05.510Z,8.00
2019-03-19T00:51:05.502Z,8.00
2019-03-19T00:52:05.526Z,8.00
2019-03-19T00:53:15.829Z,12.00
2019-03-19T00:54:05.470Z,8.00
2019-03-19T00:55:05.463Z,8.00
2019-03-19T00:56:05.461Z,8.00
2019-03-19T00:57:05.441Z,8.00
2019-03-19T00:58:05.438Z,8.00
2019-03-19T00:59:05.422Z,8.00
2019-03-19T01:00:05.404Z,8.00
2019-03-19T01:01:05.401Z,8.00
2019-03-19T01:02:05.394Z,8.00
2019-03-19T01:03:05.417Z,8.00
2019-03-19T01:04:05.363Z,8.00
2019-03-19T01:05:05.354Z,8.00
2019-03-19T01:06:05.340Z,8.00
2019-03-19T01:07:05.344Z,8.00
2019-03-19T01:08:05.326Z,8.00
2019-03-19T01:09:05.713Z,8.00
2019-03-19T01:10:05.300Z,8.00
2019-03-19T01:11:05.295Z,8.00
2019-03-19T01:12:05.281Z,8.00
2019-03-19T01:13:05.276Z,8.00
2019-03-19T01:14:05.256Z,8.00
2019-03-19T01:15:05.258Z,8.00
2019-03-19T01:16:05.234Z,8.00
2019-03-19T01:17:05.229Z,8.00
2019-03-19T01:18:05.220Z,8.00
2019-03-19T01:19:05.249Z,8.00
2019-03-19T01:20:05.196Z,8.00
2019-03-19T01:21:05.191Z,8.00
2019-03-19T01:22:05.173Z,8.00
2019-03-19T01:23:05.165Z,8.00
2019-03-19T01:24:16.179Z,8.00
2019-03-19T01:25:05.151Z,8.00
2019-03-19T01:26:05.146Z,8.00
2019-03-19T01:27:05.124Z,8.00
2019-03-19T01:28:05.116Z,8.00
2019-03-19T01:29:05.104Z,8.00
2019-03-19T01:30:05.089Z,8.00
2019-03-19T01:31:05.094Z,8.00
2019-03-19T01:32:05.069Z,8.00
2019-03-19T01:33:05.056Z,8.00
2019-03-19T01:34:05.050Z,8.00
2019-03-19T01:35:05.076Z,8.00
2019-03-19T01:36:05.038Z,8.00
2019-03-19T01:37:05.021Z,8.00
2019-03-19T01:38:05.008Z,8.00
2019-03-19T01:39:04.993Z,8.00
2019-03-19T01:40:04.982Z,8.00
2019-03-19T01:41:05.013Z,8.00
2019-03-19T01:42:04.969Z,8.00
2019-03-19T01:43:04.954Z,8.00
2019-03-19T01:44:04.941Z,8.00
2019-03-19T01:45:04.933Z,8.00
2019-03-19T01:46:04.923Z,8.00
2019-03-19T01:47:04.924Z,8.00
2019-03-19T01:48:04.939Z,8.00
2019-03-19T01:49:04.895Z,8.00
2019-03-19T01:50:04.878Z,8.00
2019-03-19T01:51:04.867Z,8.00
2019-03-19T01:52:05.651Z,8.00
2019-03-19T01:53:04.846Z,8.00
2019-03-19T01:54:04.861Z,8.00
2019-03-19T01:55:14.902Z,8.00
2019-03-19T01:56:05.684Z,8.00
2019-03-19T01:57:04.812Z,8.00
2019-03-19T01:58:04.814Z,8.00
2019-03-19T01:59:04.794Z,8.00
2019-03-19T02:00:04.772Z,8.00
2019-03-19T02:01:04.766Z,8.00
2019-03-19T02:02:04.755Z,8.00
2019-03-19T02:03:04.740Z,8.00
2019-03-19T02:04:04.752Z,8.00
2019-03-19T02:05:04.724Z,8.00
2019-03-19T02:06:04.712Z,8.00
2019-03-19T02:07:04.700Z,8.00
2019-03-19T02:08:04.685Z,8.00
2019-03-19T02:09:04.677Z,8.00
2019-03-19T02:10:04.707Z,8.00
2019-03-19T02:11:04.655Z,8.00
2019-03-19T02:12:04.649Z,8.00
2019-03-19T02:13:04.651Z,8.00
2019-03-19T02:14:04.658Z,8.00
2019-03-19T02:15:04.619Z,8.00
2019-03-19T02:16:04.606Z,8.00
2019-03-19T02:17:04.614Z,8.00
2019-03-19T02:18:04.588Z,8.00
2019-03-19T02:19:04.583Z,8.00
2019-03-19T02:20:04.579Z,8.00
2019-03-19T02:21:04.554Z,8.00
2019-03-19T02:22:04.544Z,8.00
2019-03-19T02:23:04.831Z,8.00
2019-03-19T02:24:04.516Z,8.00
2019-03-19T02:25:04.527Z,8.00
2019-03-19T02:26:16.850Z,8.00
2019-03-19T02:27:04.494Z,8.00
2019-03-19T02:28:04.483Z,8.00
2019-03-19T02:29:04.473Z,8.00
2019-03-19T02:30:04.461Z,8.00
2019-03-19T02:31:04.449Z,8.00
2019-03-19T02:32:04.445Z,8.00
2019-03-19T02:33:04.423Z,8.00
2019-03-19T02:34:04.421Z,8.00
2019-03-19T02:35:04.408Z,8.00
2019-03-19T02:36:04.391Z,8.00
2019-03-19T02:37:04.464Z,8.00
2019-03-19T02:38:04.376Z,8.00
2019-03-19T02:39:04.367Z,8.00
2019-03-19T02:40:04.350Z,8.00
2019-03-19T02:41:04.346Z,8.00
2019-03-19T02:42:04.332Z,8.00
2019-03-19T02:43:04.325Z,8.00
2019-03-19T02:44:04.311Z,8.00
2019-03-19T02:45:04.320Z,8.00
2019-03-19T02:46:04.291Z,8.00
2019-03-19T02:47:04.276Z,8.00
2019-03-19T02:48:04.306Z,8.00
2019-03-19T02:49:04.254Z,8.00
2019-03-19T02:50:04.253Z,8.00
2019-03-19T02:51:04.242Z,8.00
2019-03-19T02:52:04.232Z,8.00
2019-03-19T02:53:04.212Z,8.00
2019-03-19T02:54:04.243Z,8.00
2019-03-19T02:55:04.196Z,8.00
2019-03-19T02:56:04.181Z,8.00
2019-03-19T02:57:14.490Z,8.00
2019-03-19T02:58:04.163Z,8.00
2019-03-19T02:59:04.156Z,8.00
2019-03-19T03:00:04.175Z,8.00
2019-03-19T03:01:04.135Z,8.00
2019-03-19T03:02:04.124Z,8.00
2019-03-19T03:03:04.118Z,8.00
2019-03-19T03:04:04.102Z,8.00
2019-03-19T03:05:04.089Z,8.00
2019-03-19T03:06:04.095Z,8.00
2019-03-19T03:07:04.068Z,8.00
2019-03-19T03:08:04.059Z,8.00
2019-03-19T03:09:04.106Z,8.00
2019-03-19T03:10:04.040Z,8.00
2019-03-19T03:11:04.072Z,8.00
2019-03-19T03:12:04.012Z,8.00
2019-03-19T03:13:04.000Z,8.00
2019-03-19T03:14:03.997Z,8.00
2019-03-19T03:15:03.984Z,8.00
2019-03-19T03:16:03.970Z,8.00
2019-03-19T03:17:03.981Z,8.00
2019-03-19T03:18:03.959Z,8.00
2019-03-19T03:19:03.947Z,8.00
2019-03-19T03:20:03.930Z,8.00
2019-03-19T03:21:03.929Z,8.00
2019-03-19T03:22:03.952Z,8.00
2019-03-19T03:23:03.908Z,8.00
2019-03-19T03:24:03.894Z,8.00
2019-03-19T03:25:03.881Z,8.00
2019-03-19T03:26:03.875Z,8.00
2019-03-19T03:27:03.867Z,8.00
2019-03-19T03:28:14.327Z,8.00
2019-03-19T03:29:03.835Z,8.00
2019-03-19T03:30:03.833Z,8.00
2019-03-19T03:31:03.825Z,8.00
2019-03-19T03:32:03.804Z,8.00
2019-03-19T03:33:04.034Z,8.00
2019-03-19T03:34:03.818Z,8.00
2019-03-19T03:35:03.781Z,8.00
2019-03-19T03:36:03.766Z,8.00
2019-03-19T03:37:03.753Z,8.00
2019-03-19T03:38:03.742Z,12.00
2019-03-19T03:39:03.729Z,12.00
2019-03-19T03:40:03.740Z,8.00
2019-03-19T03:41:03.712Z,8.00
2019-03-19T03:42:03.718Z,8.00
2019-03-19T03:43:03.690Z,8.00
2019-03-19T03:44:03.683Z,12.00
2019-03-19T03:45:03.702Z,12.00
2019-03-19T03:46:03.672Z,12.00
2019-03-19T03:47:03.651Z,12.00
2019-03-19T03:48:03.647Z,8.00
2019-03-19T03:49:03.633Z,12.00
2019-03-19T03:50:03.621Z,12.00
2019-03-19T03:51:03.647Z,12.00
2019-03-19T03:52:03.612Z,16.00
2019-03-19T03:53:03.603Z,12.00
2019-03-19T03:54:03.586Z,16.00
2019-03-19T03:55:03.560Z,16.00
2019-03-19T03:56:03.556Z,16.00
2019-03-19T03:57:03.563Z,16.00
2019-03-19T03:58:03.533Z,20.00
2019-03-19T03:59:14.597Z,24.00
2019-03-19T04:00:03.506Z,28.00
2019-03-19T04:01:03.503Z,28.00
2019-03-19T04:02:03.495Z,32.00
2019-03-19T04:03:03.517Z,32.00
2019-03-19T04:04:03.627Z,36.00
2019-03-19T04:05:03.457Z,32.00
2019-03-19T04:06:03.450Z,36.00
2019-03-19T04:07:03.449Z,40.00
2019-03-19T04:08:03.423Z,44.00
2019-03-19T04:09:03.425Z,48.00
2019-03-19T04:10:03.401Z,52.00
2019-03-19T04:11:03.523Z,52.00
2019-03-19T04:12:03.411Z,56.00
2019-03-19T04:13:03.420Z,60.00
2019-03-19T04:14:03.372Z,64.00
2019-03-19T04:15:03.353Z,68.00
2019-03-19T04:16:03.349Z,72.00
2019-03-19T04:17:03.329Z,76.00
2019-03-19T04:18:03.326Z,80.00
2019-03-19T04:19:03.344Z,84.00
2019-03-19T04:20:03.308Z,88.00
2019-03-19T04:21:03.287Z,100.00
2019-03-19T04:22:03.308Z,108.00
2019-03-19T04:23:03.272Z,112.00
2019-03-19T04:24:03.265Z,124.00
2019-03-19T04:25:03.308Z,132.00
2019-03-19T04:26:03.236Z,136.00
2019-03-19T04:27:15.407Z,144.00
2019-03-19T04:28:04.220Z,156.00
2019-03-19T04:29:03.210Z,160.00
2019-03-19T04:30:13.839Z,172.00
2019-03-19T04:31:03.180Z,180.00
2019-03-19T04:32:03.175Z,200.00
2019-03-19T04:33:03.161Z,208.00
2019-03-19T04:34:03.155Z,212.00
2019-03-19T04:35:03.142Z,228.00
2019-03-19T04:36:03.143Z,236.00
2019-03-19T04:37:03.123Z,248.00
2019-03-19T04:38:03.117Z,252.00
2019-03-19T04:39:03.102Z,252.00
2019-03-19T04:40:03.094Z,252.00
2019-03-19T04:41:03.101Z,244.00
2019-03-19T04:42:03.071Z,244.00
2019-03-19T04:43:03.065Z,252.00
2019-03-19T04:44:03.047Z,268.00
2019-03-19T04:45:03.033Z,284.00
2019-03-19T04:46:03.022Z,300.00
2019-03-19T04:47:03.057Z,308.00
2019-03-19T04:48:03.753Z,336.00
2019-03-19T04:49:02.996Z,344.00
2019-03-19T04:50:02.994Z,348.00
2019-03-19T04:51:02.974Z,372.00
2019-03-19T04:52:02.959Z,380.00
2019-03-19T04:53:02.995Z,400.00
2019-03-19T04:54:02.943Z,412.00
2019-03-19T04:55:02.929Z,428.00
2019-03-19T04:56:02.928Z,452.00
2019-03-19T04:57:02.913Z,496.00
2019-03-19T04:58:02.903Z,524.00
2019-03-19T04:59:02.900Z,552.00
2019-03-19T05:00:02.876Z,584.00
2019-03-19T05:01:13.290Z,608.00
2019-03-19T05:02:02.854Z,620.00
2019-03-19T05:03:02.853Z,632.00
2019-03-19T05:04:02.846Z,656.00
2019-03-19T05:05:02.830Z,680.00
2019-03-19T05:06:02.829Z,692.00
2019-03-19T05:07:02.804Z,716.00
2019-03-19T05:08:02.796Z,716.00
2019-03-19T05:09:02.830Z,748.00
2019-03-19T05:10:02.847Z,784.00
2019-03-19T05:11:02.767Z,796.00
2019-03-19T05:12:02.756Z,852.00
2019-03-19T05:13:02.743Z,900.00
2019-03-19T05:14:02.731Z,932.00
2019-03-19T05:15:02.767Z,960.00
2019-03-19T05:16:02.709Z,984.00
2019-03-19T05:17:02.699Z,984.00
2019-03-19T05:18:02.693Z,1056.00
2019-03-19T05:19:02.676Z,1084.00
2019-03-19T05:20:02.669Z,1100.00
2019-03-19T05:21:02.692Z,1124.00
2019-03-19T05:22:02.651Z,1132.00
2019-03-19T05:23:02.640Z,1164.00
2019-03-19T05:24:02.625Z,1260.00
2019-03-19T05:25:02.616Z,1388.00
2019-03-19T05:26:02.611Z,1456.00
2019-03-19T05:27:02.603Z,1576.00
2019-03-19T05:28:02.583Z,1572.00
2019-03-19T05:29:02.573Z,1552.00
2019-03-19T05:30:02.567Z,1572.00
2019-03-19T05:31:02.596Z,1632.00
2019-03-19T05:32:13.051Z,1624.00
2019-03-19T05:33:03.374Z,1720.00
2019-03-19T05:34:02.518Z,1788.00
2019-03-19T05:35:02.515Z,1884.00
2019-03-19T05:36:02.497Z,1988.00
2019-03-19T05:37:02.530Z,1888.00
2019-03-19T05:38:02.476Z,1996.00
2019-03-19T05:39:02.477Z,2056.00
2019-03-19T05:40:02.461Z,2044.00
2019-03-19T05:41:02.448Z,2116.00
2019-03-19T05:42:02.446Z,2148.00
2019-03-19T05:43:02.467Z,2224.00
2019-03-19T05:44:02.413Z,2236.00
2019-03-19T05:45:02.406Z,2220.00
2019-03-19T05:46:02.396Z,2240.00
2019-03-19T05:47:02.398Z,2204.00
2019-03-19T05:48:02.373Z,2208.00
2019-03-19T05:49:02.370Z,2240.00
2019-03-19T05:50:02.351Z,2176.00
2019-03-19T05:51:02.342Z,2236.00
2019-03-19T05:52:02.334Z,2208.00
2019-03-19T05:53:02.325Z,2160.00
2019-03-19T05:54:02.318Z,2212.00
2019-03-19T05:55:02.310Z,2308.00
2019-03-19T05:56:02.289Z,2424.00
2019-03-19T05:57:02.278Z,2404.00
2019-03-19T05:58:02.269Z,2452.00
2019-03-19T05:59:02.279Z,2524.00
2019-03-19T06:00:02.257Z,2448.00
2019-03-19T06:01:02.233Z,2504.00
2019-03-19T06:02:02.238Z,2532.00
2019-03-19T06:03:14.106Z,2516.00
2019-03-19T06:04:02.201Z,2504.00
2019-03-19T06:05:02.232Z,2544.00
2019-03-19T06:06:02.199Z,2548.00
2019-03-19T06:07:02.180Z,2560.00
2019-03-19T06:08:02.165Z,2600.00
2019-03-19T06:09:02.158Z,2492.00
2019-03-19T06:10:02.148Z,2544.00
2019-03-19T06:11:02.136Z,2560.00
2019-03-19T06:12:02.123Z,2528.00
2019-03-19T06:13:02.119Z,2524.00
2019-03-19T06:14:02.112Z,2556.00
2019-03-19T06:15:02.104Z,2500.00
2019-03-19T06:16:02.445Z,2608.00
2019-03-19T06:17:02.080Z,2552.00
2019-03-19T06:18:02.062Z,2540.00
2019-03-19T06:19:02.044Z,2552.00
2019-03-19T06:20:02.038Z,2552.00
2019-03-19T06:21:02.029Z,2596.00
2019-03-19T06:22:02.054Z,2520.00
2019-03-19T06:23:02.012Z,2416.00
2019-03-19T06:24:02.008Z,2412.00
2019-03-19T06:25:01.991Z,2480.00
2019-03-19T06:26:01.994Z,2380.00
2019-03-19T06:27:01.965Z,2396.00
2019-03-19T06:28:01.995Z,2480.00
2019-03-19T06:29:01.941Z,2584.00
2019-03-19T06:30:01.935Z,2656.00
2019-03-19T06:31:01.919Z,2668.00
2019-03-19T06:32:01.911Z,2784.00
2019-03-19T06:33:01.900Z,2852.00
2019-03-19T06:34:12.952Z,2768.00
2019-03-19T06:35:01.884Z,2820.00
2019-03-19T06:36:01.899Z,2860.00
2019-03-19T06:37:01.861Z,2912.00
2019-03-19T06:38:01.845Z,2852.00
2019-03-19T06:39:01.914Z,2800.00
2019-03-19T06:40:01.837Z,2708.00
2019-03-19T06:41:01.817Z,2816.00
2019-03-19T06:42:01.801Z,2796.00
2019-03-19T06:43:01.794Z,2804.00
2019-03-19T06:44:01.785Z,2832.00
2019-03-19T06:45:01.827Z,2828.00
2019-03-19T06:46:01.761Z,2864.00
2019-03-19T06:47:01.747Z,2944.00
2019-03-19T06:48:01.749Z,3032.00
2019-03-19T06:49:01.723Z,3032.00
2019-03-19T06:50:01.720Z,3112.00
2019-03-19T06:51:01.734Z,3180.00
2019-03-19T06:52:01.694Z,3244.00
2019-03-19T06:53:01.687Z,3292.00
2019-03-19T06:54:01.681Z,3328.00
2019-03-19T06:55:01.675Z,3488.00
2019-03-19T06:56:01.695Z,3548.00
2019-03-19T06:57:01.639Z,3784.00
2019-03-19T06:58:10.609Z,3864.00
2019-03-19T06:59:02.621Z,4020.00
2019-03-19T07:00:01.650Z,4084.00
2019-03-19T07:01:01.598Z,4248.00
2019-03-19T07:02:01.635Z,4376.00
2019-03-19T07:03:01.588Z,4540.00
2019-03-19T07:04:01.574Z,4664.00
2019-03-19T07:05:11.493Z,4928.00
2019-03-19T07:06:01.547Z,5144.00
2019-03-19T07:07:01.532Z,5408.00
2019-03-19T07:08:01.962Z,5912.00
2019-03-19T07:09:01.522Z,6352.00
2019-03-19T07:10:01.536Z,6616.00
2019-03-19T07:11:01.512Z,6956.00
2019-03-19T07:12:09.010Z,7116.00
2019-03-19T07:13:01.476Z,7496.00
2019-03-19T07:14:01.461Z,7752.00
2019-03-19T07:15:01.455Z,8192.00
2019-03-19T07:16:01.491Z,8868.00
2019-03-19T07:17:01.432Z,9396.00
2019-03-19T07:18:01.431Z,9508.00
2019-03-19T07:19:01.441Z,9628.00
2019-03-19T07:20:01.397Z,9960.00
2019-03-19T07:21:01.408Z,9564.00
2019-03-19T07:22:01.384Z,9296.00
2019-03-19T07:23:01.436Z,8972.00
2019-03-19T07:24:01.356Z,8612.00
2019-03-19T07:25:01.345Z,8480.00
2019-03-19T07:26:01.330Z,7980.00
2019-03-19T07:27:01.332Z,7996.00
2019-03-19T07:28:01.311Z,8136.00
2019-03-19T07:29:01.322Z,7944.00
2019-03-19T07:30:01.289Z,7720.00
2019-03-19T07:31:01.280Z,7592.00
2019-03-19T07:32:01.267Z,7204.00
2019-03-19T07:33:01.261Z,7064.00
2019-03-19T07:34:01.246Z,6624.00
2019-03-19T07:35:01.250Z,6120.00
2019-03-19T07:36:01.234Z,5656.00
2019-03-19T07:37:01.213Z,5304.00
2019-03-19T07:38:01.204Z,4816.00
2019-03-19T07:39:01.198Z,4660.00
2019-03-19T07:40:01.257Z,4708.00
2019-03-19T07:41:01.181Z,4996.00
2019-03-19T07:42:01.167Z,4984.00
2019-03-19T07:43:12.118Z,5032.00
2019-03-19T07:44:01.145Z,4836.00
2019-03-19T07:45:01.133Z,4452.00
2019-03-19T07:46:01.127Z,4292.00
2019-03-19T07:47:01.113Z,4012.00
2019-03-19T07:48:01.093Z,3808.00
2019-03-19T07:49:01.087Z,3816.00
2019-03-19T07:50:01.081Z,3872.00
2019-03-19T07:51:01.108Z,3792.00
2019-03-19T07:52:01.067Z,3804.00
2019-03-19T07:53:01.045Z,3864.00
2019-03-19T07:54:01.034Z,3944.00
2019-03-19T07:55:01.019Z,3872.00
2019-03-19T07:56:01.012Z,3816.00
2019-03-19T07:57:01.054Z,3948.00
2019-03-19T07:58:00.998Z,4092.00
2019-03-19T07:59:00.996Z,4244.00
2019-03-19T08:00:00.973Z,4432.00
2019-03-19T08:01:00.962Z,4812.00
2019-03-19T08:02:00.956Z,4924.00
2019-03-19T08:03:00.978Z,5068.00
2019-03-19T08:04:00.930Z,5476.00
2019-03-19T08:05:00.921Z,5776.00
2019-03-19T08:06:00.910Z,5996.00
2019-03-19T08:07:00.895Z,6116.00
2019-03-19T08:08:00.881Z,6432.00
2019-03-19T08:09:00.934Z,6788.00
2019-03-19T08:10:00.867Z,7320.00
2019-03-19T08:11:00.896Z,7500.00
2019-03-19T08:12:00.881Z,7480.00
2019-03-19T08:13:00.827Z,7472.00
2019-03-19T08:14:12.029Z,7820.00
2019-03-19T08:15:00.811Z,8160.00
2019-03-19T08:16:00.800Z,8308.00
2019-03-19T08:17:00.792Z,8496.00
2019-03-19T08:18:00.777Z,8884.00
2019-03-19T08:19:00.770Z,9164.00
2019-03-19T08:20:00.784Z,9136.00
2019-03-19T08:21:00.754Z,9124.00
2019-03-19T08:22:00.739Z,9176.00
2019-03-19T08:23:00.738Z,9156.00
2019-03-19T08:24:00.711Z,8956.00
2019-03-19T08:25:00.698Z,8580.00
2019-03-19T08:26:00.721Z,8300.00
2019-03-19T08:27:00.685Z,8244.00
2019-03-19T08:28:00.674Z,8220.00
2019-03-19T08:29:00.658Z,8376.00
2019-03-19T08:30:00.697Z,8412.00
2019-03-19T08:31:00.665Z,8128.00
2019-03-19T08:32:00.630Z,7964.00
2019-03-19T08:33:00.618Z,7576.00
2019-03-19T08:34:00.615Z,7220.00
2019-03-19T08:35:00.594Z,7080.00
2019-03-19T08:36:08.989Z,7352.00
2019-03-19T08:37:01.572Z,7324.00
2019-03-19T08:38:00.558Z,7508.00
2019-03-19T08:39:00.566Z,7700.00
2019-03-19T08:40:00.537Z,7736.00
2019-03-19T08:41:00.532Z,7672.00
2019-03-19T08:42:00.525Z,7712.00
2019-03-19T08:43:00.511Z,7816.00
2019-03-19T08:44:00.494Z,8128.00
2019-03-19T08:45:10.880Z,8616.00
2019-03-19T08:46:00.480Z,9048.00
2019-03-19T08:47:00.483Z,9208.00
2019-03-19T08:48:00.459Z,9480.00
2019-03-19T08:49:00.443Z,10508.00
2019-03-19T08:50:00.433Z,10444.00
2019-03-19T08:51:00.424Z,10628.00
2019-03-19T08:52:00.426Z,10600.00
2019-03-19T08:53:00.439Z,10848.00
2019-03-19T08:54:00.396Z,10908.00
2019-03-19T08:55:08.886Z,10420.00
2019-03-19T08:56:01.149Z,9460.00
2019-03-19T08:57:00.369Z,9504.00
2019-03-19T08:58:00.354Z,10240.00
2019-03-19T08:59:05.891Z,10756.00
2019-03-19T09:01:10.037Z,11052.00
2019-03-19T09:02:10.015Z,10788.00
2019-03-19T09:03:10.025Z,9676.00
2019-03-19T09:04:09.982Z,8936.00
2019-03-19T09:05:09.996Z,8580.00
2019-03-19T09:06:09.961Z,8476.00
2019-03-19T09:07:09.975Z,8844.00
2019-03-19T09:08:10.110Z,9168.00
2019-03-19T09:09:09.938Z,9264.00
2019-03-19T09:10:10.000Z,9004.00
2019-03-19T09:11:09.990Z,9220.00
2019-03-19T09:12:09.905Z,9136.00
2019-03-19T09:13:09.885Z,8744.00
2019-03-19T09:14:09.877Z,8380.00
2019-03-19T09:15:09.864Z,8204.00
2019-03-19T09:16:09.934Z,8336.00
2019-03-19T09:17:09.846Z,8536.00
2019-03-19T09:18:09.840Z,8640.00
2019-03-19T09:19:09.824Z,8456.00
2019-03-19T09:20:09.816Z,8336.00
2019-03-19T09:21:09.852Z,8248.00
2019-03-19T09:22:09.786Z,8452.00
2019-03-19T09:23:09.804Z,8792.00
2019-03-19T09:24:09.779Z,8948.00
2019-03-19T09:25:09.753Z,9016.00
2019-03-19T09:26:09.739Z,8848.00
2019-03-19T09:27:09.751Z,8824.00
2019-03-19T09:28:09.779Z,8704.00
2019-03-19T09:29:16.802Z,8716.00
2019-03-19T09:30:10.703Z,8840.00
2019-03-19T09:31:16.675Z,9020.00
2019-03-19T09:32:09.696Z,9084.00
2019-03-19T09:33:09.682Z,9120.00
2019-03-19T09:34:09.651Z,9268.00
2019-03-19T09:35:09.652Z,9700.00
2019-03-19T09:36:09.633Z,9924.00
2019-03-19T09:37:09.636Z,10092.00
2019-03-19T09:38:09.621Z,10016.00
2019-03-19T09:39:09.606Z,9316.00
2019-03-19T09:40:09.587Z,9860.00
2019-03-19T09:41:09.580Z,10076.00
2019-03-19T09:42:09.576Z,9936.00
2019-03-19T09:43:09.571Z,9868.00
2019-03-19T09:44:09.586Z,10720.00
2019-03-19T09:45:09.551Z,11804.00
2019-03-19T09:46:09.531Z,12504.00
2019-03-19T09:47:09.576Z,13244.00
2019-03-19T09:48:09.503Z,12448.00
2019-03-19T09:49:09.495Z,11816.00
2019-03-19T09:50:09.527Z,11364.00
2019-03-19T09:51:09.470Z,9916.00
2019-03-19T09:52:09.460Z,8464.00
2019-03-19T09:53:09.453Z,8060.00
2019-03-19T09:54:09.444Z,8208.00
2019-03-19T09:55:09.432Z,8272.00
2019-03-19T09:56:09.488Z,8212.00
2019-03-19T09:57:09.409Z,7832.00
2019-03-19T09:58:09.396Z,7700.00
2019-03-19T09:59:09.399Z,7504.00
2019-03-19T10:00:09.369Z,7384.00
2019-03-19T10:01:09.366Z,7360.00
2019-03-19T10:02:20.849Z,7124.00
2019-03-19T10:03:09.345Z,7248.00
2019-03-19T10:04:16.321Z,7364.00
2019-03-19T10:05:09.323Z,7216.00
2019-03-19T10:06:14.295Z,7124.00
2019-03-19T10:07:10.296Z,7048.00
2019-03-19T10:08:09.298Z,6520.00
2019-03-19T10:09:09.274Z,5968.00
2019-03-19T10:10:09.264Z,5936.00
2019-03-19T10:11:09.253Z,5812.00
2019-03-19T10:12:09.248Z,5876.00
2019-03-19T10:13:09.250Z,5864.00
2019-03-19T10:14:09.250Z,5812.00
2019-03-19T10:15:09.236Z,5756.00
2019-03-19T10:16:09.199Z,5652.00
2019-03-19T10:17:09.210Z,5800.00
2019-03-19T10:18:09.214Z,6100.00
2019-03-19T10:19:09.178Z,6764.00
2019-03-19T10:20:09.160Z,6832.00
2019-03-19T10:21:09.184Z,6856.00
2019-03-19T10:22:09.137Z,7124.00
2019-03-19T10:23:09.143Z,7464.00
2019-03-19T10:24:09.180Z,7208.00
2019-03-19T10:25:09.102Z,6868.00
2019-03-19T10:26:09.092Z,6416.00
2019-03-19T10:27:09.076Z,6352.00
2019-03-19T10:28:09.079Z,6644.00
2019-03-19T10:29:09.069Z,6768.00
2019-03-19T10:30:09.090Z,6704.00
2019-03-19T10:31:09.038Z,6436.00
2019-03-19T10:32:09.029Z,6360.00
2019-03-19T10:33:09.024Z,6340.00
2019-03-19T10:34:09.032Z,6204.00
2019-03-19T10:35:19.872Z,6116.00
2019-03-19T10:36:08.983Z,6172.00
2019-03-19T10:37:08.973Z,6064.00
2019-03-19T10:38:08.956Z,6104.00
2019-03-19T10:39:09.301Z,6108.00
2019-03-19T10:40:08.946Z,5980.00
2019-03-19T10:41:08.974Z,6176.00
2019-03-19T10:42:08.913Z,6300.00
2019-03-19T10:43:08.906Z,6536.00
2019-03-19T10:44:08.898Z,6688.00
2019-03-19T10:45:08.883Z,6980.00
2019-03-19T10:46:08.902Z,7448.00
2019-03-19T10:47:08.871Z,7936.00
2019-03-19T10:48:08.873Z,8340.00
2019-03-19T10:49:08.845Z,8740.00
2019-03-19T10:50:08.826Z,8908.00
2019-03-19T10:51:08.823Z,9212.00
2019-03-19T10:52:08.847Z,9432.00
2019-03-19T10:53:08.792Z,9716.00
2019-03-19T10:54:08.799Z,9796.00
2019-03-19T10:55:08.774Z,9564.00
2019-03-19T10:56:08.766Z,9424.00
2019-03-19T10:57:08.750Z,9460.00
2019-03-19T10:58:11.226Z,9576.00
2019-03-19T10:59:08.730Z,9664.00
2019-03-19T11:00:08.732Z,9792.00
2019-03-19T11:01:08.708Z,9756.00
2019-03-19T11:02:08.716Z,9720.00
2019-03-19T11:03:08.693Z,9600.00
2019-03-19T11:04:08.716Z,9156.00
2019-03-19T11:05:08.664Z,8840.00
2019-03-19T11:06:19.276Z,8700.00
2019-03-19T11:07:08.657Z,8556.00
2019-03-19T11:08:08.632Z,8048.00
2019-03-19T11:09:08.624Z,7648.00
2019-03-19T11:10:08.631Z,7348.00
2019-03-19T11:11:08.597Z,7184.00
2019-03-19T11:12:08.597Z,6944.00
2019-03-19T11:13:08.578Z,6568.00
2019-03-19T11:14:08.590Z,6196.00
2019-03-19T11:15:08.573Z,5960.00
2019-03-19T11:16:08.545Z,5828.00
2019-03-19T11:17:08.534Z,5684.00
2019-03-19T11:18:08.520Z,5576.00
2019-03-19T11:19:08.518Z,5456.00
2019-03-19T11:20:08.964Z,5472.00
2019-03-19T11:21:08.494Z,5532.00
2019-03-19T11:22:08.477Z,5724.00
2019-03-19T11:23:08.473Z,5952.00
2019-03-19T11:24:08.462Z,6356.00
2019-03-19T11:25:15.940Z,6524.00
2019-03-19T11:26:08.441Z,6464.00
2019-03-19T11:27:08.423Z,6640.00
2019-03-19T11:28:08.450Z,7168.00
2019-03-19T11:29:08.409Z,7288.00
2019-03-19T11:30:08.393Z,7424.00
2019-03-19T11:31:08.394Z,7476.00
2019-03-19T11:32:08.389Z,7328.00
2019-03-19T11:33:08.373Z,7368.00
2019-03-19T11:34:08.348Z,7444.00
2019-03-19T11:35:08.343Z,7592.00
2019-03-19T11:36:08.326Z,7832.00
2019-03-19T11:37:08.320Z,8028.00
2019-03-19T11:38:08.328Z,7948.00
2019-03-19T11:39:08.370Z,7748.00
2019-03-19T11:40:08.299Z,7652.00
2019-03-19T11:41:08.276Z,7576.00
2019-03-19T11:42:08.261Z,7456.00
2019-03-19T11:43:08.257Z,7492.00
2019-03-19T11:44:08.278Z,7716.00
2019-03-19T11:45:08.235Z,7848.00
2019-03-19T11:46:08.222Z,7976.00
2019-03-19T11:47:08.207Z,8132.00
2019-03-19T11:48:08.197Z,8228.00
2019-03-19T11:49:08.189Z,8380.00
2019-03-19T11:50:08.183Z,8528.00
2019-03-19T11:51:08.171Z,8860.00
2019-03-19T11:52:08.154Z,9140.00
2019-03-19T11:53:08.142Z,9160.00
2019-03-19T11:54:08.139Z,9224.00
2019-03-19T11:55:08.143Z,8996.00
2019-03-19T11:56:18.097Z,8700.00
2019-03-19T11:57:08.096Z,8544.00
2019-03-19T11:58:08.087Z,8552.00
2019-03-19T11:59:08.077Z,8452.00
2019-03-19T12:00:11.558Z,8328.00
2019-03-19T12:01:08.062Z,8112.00
2019-03-19T12:02:08.050Z,7848.00
2019-03-19T12:03:15.518Z,7596.00
2019-03-19T12:04:09.026Z,7376.00
2019-03-19T12:05:08.011Z,7056.00
2019-03-19T12:06:08.039Z,6780.00
2019-03-19T12:07:07.995Z,6588.00
2019-03-19T12:08:08.002Z,6424.00
2019-03-19T12:09:07.964Z,6300.00
2019-03-19T12:10:07.967Z,6136.00
2019-03-19T12:11:07.948Z,5840.00
2019-03-19T12:12:07.950Z,5600.00
2019-03-19T12:13:07.924Z,5484.00
2019-03-19T12:14:07.922Z,5344.00
2019-03-19T12:15:07.912Z,5328.00
2019-03-19T12:16:07.894Z,5444.00
2019-03-19T12:17:15.514Z,5388.00
2019-03-19T12:18:07.874Z,5360.00
2019-03-19T12:19:07.859Z,5372.00
2019-03-19T12:20:07.850Z,5444.00
2019-03-19T12:21:07.836Z,5552.00
2019-03-19T12:22:07.825Z,5648.00
2019-03-19T12:23:07.859Z,5792.00
2019-03-19T12:24:07.807Z,5848.00
2019-03-19T12:25:07.790Z,5724.00
2019-03-19T12:26:07.791Z,5480.00
2019-03-19T12:27:07.781Z,5300.00
2019-03-19T12:28:07.767Z,5340.00
2019-03-19T12:29:07.759Z,5464.00
2019-03-19T12:30:07.748Z,5544.00